createdAt,value
2023-04-25T00:01:01.440Z,3.40
2023-04-25T00:03:30.862Z,3.30
2023-04-25T00:06:03.078Z,3.40
2023-04-25T00:08:31.515Z,3.50
2023-04-25T00:10:59.900Z,3.50
2023-04-25T00:13:27.911Z,3.50
2023-04-25T00:15:55.574Z,3.30
2023-04-25T00:18:23.610Z,3.10
2023-04-25T00:20:51.389Z,3.10
2023-04-25T00:23:19.332Z,3.10
2023-04-25T00:25:47.957Z,3.10
2023-04-25T00:28:16.336Z,3.00
2023-04-25T00:30:44.526Z,3.00
2023-04-25T00:33:12.150Z,2.80
2023-04-25T00:35:39.785Z,2.90
2023-04-25T00:38:07.325Z,2.80
2023-04-25T00:40:34.928Z,2.80
2023-04-25T00:43:02.922Z,2.70
2023-04-25T00:45:31.437Z,2.70
2023-04-25T00:47:59.621Z,2.70
2023-04-25T00:50:28.173Z,2.80
2023-04-25T00:52:56.193Z,3.00
2023-04-25T00:55:23.920Z,3.00
2023-04-25T00:57:51.526Z,3.10
2023-04-25T01:00:19.757Z,3.00
2023-04-25T01:02:48.254Z,3.00
2023-04-25T01:05:16.225Z,3.00
2023-04-25T01:07:43.970Z,3.10
2023-04-25T01:10:11.631Z,3.10
2023-04-25T01:12:39.229Z,3.00
2023-04-25T01:15:07.630Z,3.10
2023-04-25T01:17:36.371Z,3.00
2023-04-25T01:20:10.444Z,3.10
2023-04-25T01:22:39.130Z,2.90
2023-04-25T01:25:07.918Z,3.10
2023-04-25T01:27:37.338Z,3.10
2023-04-25T01:30:06.756Z,3.10
2023-04-25T01:32:39.685Z,3.10
2023-04-25T01:35:10.454Z,3.00
2023-04-25T01:37:42.127Z,3.00
2023-04-25T01:40:12.634Z,3.00
2023-04-25T01:42:43.739Z,3.10
2023-04-25T01:45:12.322Z,3.00
2023-04-25T01:47:41.279Z,3.00
2023-04-25T01:50:09.701Z,2.90
2023-04-25T01:52:38.357Z,2.80
2023-04-25T01:55:06.985Z,2.90
2023-04-25T01:57:36.705Z,2.80
2023-04-25T02:00:08.080Z,2.80
2023-04-25T02:02:42.049Z,2.90
2023-04-25T02:05:21.853Z,2.90
2023-04-25T02:07:49.792Z,2.90
2023-04-25T02:10:17.287Z,2.80
2023-04-25T02:13:08.868Z,2.80
2023-04-25T02:15:56.682Z,2.80
2023-04-25T02:18:24.410Z,2.70
2023-04-25T02:20:51.949Z,2.80
2023-04-25T02:23:22.504Z,2.80
2023-04-25T02:25:50.540Z,2.90
2023-04-25T02:28:18.103Z,2.80
2023-04-25T02:30:45.654Z,2.80
2023-04-25T02:33:13.097Z,2.80
2023-04-25T02:35:40.726Z,2.90
2023-04-25T02:38:08.222Z,2.80
2023-04-25T02:40:35.794Z,2.90
2023-04-25T02:43:03.349Z,2.80
2023-04-25T02:45:30.830Z,2.90
2023-04-25T02:47:58.379Z,2.90
2023-04-25T02:50:26.010Z,2.80
2023-04-25T02:52:53.484Z,2.90
2023-04-25T02:55:28.323Z,2.90
2023-04-25T02:57:57.095Z,2.80
2023-04-25T03:00:56.664Z,2.70
2023-04-25T03:03:24.655Z,2.70
2023-04-25T03:05:53.528Z,2.80
2023-04-25T03:08:33.431Z,2.70
2023-04-25T03:11:02.020Z,2.60
2023-04-25T03:13:30.935Z,2.70
2023-04-25T03:15:59.291Z,2.60
2023-04-25T03:18:27.146Z,2.60
2023-04-25T03:20:56.138Z,2.70
2023-04-25T03:23:23.699Z,2.70
2023-04-25T03:25:51.246Z,2.50
2023-04-25T03:28:19.027Z,2.60
2023-04-25T03:30:46.587Z,2.50
2023-04-25T03:33:14.093Z,2.40
2023-04-25T03:35:41.711Z,2.50
2023-04-25T03:38:09.655Z,2.50
2023-04-25T03:40:40.622Z,2.50
2023-04-25T03:43:21.466Z,2.40
2023-04-25T03:45:55.168Z,2.40
2023-04-25T03:48:25.824Z,2.40
2023-04-25T03:50:55.933Z,2.50
2023-04-25T03:53:23.796Z,2.40
2023-04-25T03:56:29.417Z,2.50
2023-04-25T03:59:03.414Z,2.60
2023-04-25T04:01:32.005Z,2.40
2023-04-25T04:03:59.719Z,2.40
2023-04-25T04:06:28.271Z,2.60
2023-04-25T04:09:04.453Z,2.40
2023-04-25T04:11:36.255Z,2.50
2023-04-25T04:14:03.825Z,2.40
2023-04-25T04:16:33.950Z,2.40
2023-04-25T04:19:02.276Z,2.40
2023-04-25T04:21:31.079Z,2.40
2023-04-25T04:24:01.086Z,2.30
2023-04-25T04:26:33.871Z,2.30
2023-04-25T04:29:09.751Z,2.40
2023-04-25T04:31:44.504Z,2.40
2023-04-25T04:34:12.242Z,2.40
2023-04-25T04:36:41.131Z,2.40
2023-04-25T04:39:10.602Z,2.40
2023-04-25T04:42:12.500Z,2.40
2023-04-25T04:44:59.668Z,2.30
2023-04-25T04:47:41.673Z,2.40
2023-04-25T04:50:36.691Z,2.40
2023-04-25T04:53:33.543Z,2.30
2023-04-25T04:56:32.031Z,2.30
2023-04-25T04:59:19.764Z,2.40
2023-04-25T05:02:19.783Z,2.50
2023-04-25T05:05:10.364Z,2.60
2023-04-25T05:08:01.994Z,2.40
2023-04-25T05:10:43.713Z,2.50
2023-04-25T05:13:24.735Z,2.50
2023-04-25T05:15:52.353Z,2.50
2023-04-25T05:18:43.379Z,2.40
2023-04-25T05:21:32.461Z,2.40
2023-04-25T05:24:23.256Z,2.50
2023-04-25T05:26:56.632Z,2.60
2023-04-25T05:29:44.471Z,2.50
2023-04-25T05:32:27.735Z,2.60
2023-04-25T05:34:55.842Z,2.60
2023-04-25T05:37:28.057Z,2.70
2023-04-25T05:40:07.801Z,2.70
2023-04-25T05:43:13.877Z,2.80
2023-04-25T05:45:49.964Z,2.80
2023-04-25T05:48:50.007Z,2.70
2023-04-25T05:51:40.447Z,2.70
2023-04-25T05:54:26.584Z,2.60
2023-04-25T05:56:58.550Z,2.50
2023-04-25T05:59:26.350Z,2.60
2023-04-25T06:01:53.967Z,2.70
2023-04-25T06:04:22.893Z,2.70
2023-04-25T06:06:50.587Z,2.70
2023-04-25T06:09:18.093Z,2.80
2023-04-25T06:11:45.773Z,2.70
2023-04-25T06:14:13.353Z,2.70
2023-04-25T06:16:46.198Z,2.60
2023-04-25T06:19:13.741Z,2.70
2023-04-25T06:21:42.705Z,2.50
2023-04-25T06:24:10.821Z,2.40
2023-04-25T06:26:38.400Z,2.50
2023-04-25T06:29:06.567Z,2.40
2023-04-25T06:31:34.944Z,2.60
2023-04-25T06:34:03.513Z,2.60
2023-04-25T06:36:33.331Z,2.30
2023-04-25T06:39:06.766Z,2.30
2023-04-25T06:41:34.646Z,2.00
2023-04-25T06:44:03.994Z,2.00
2023-04-25T06:46:40.293Z,2.20
2023-04-25T06:49:08.178Z,2.00
2023-04-25T06:51:35.792Z,2.20
2023-04-25T06:57:02.006Z,2.60
2023-04-25T06:59:30.333Z,2.70
2023-04-25T07:01:57.965Z,2.60
2023-04-25T07:04:27.448Z,2.60
2023-04-25T07:07:01.969Z,3.00
2023-04-25T07:09:37.416Z,3.00
2023-04-25T07:12:06.248Z,3.10
2023-04-25T07:14:34.926Z,3.10
2023-04-25T07:17:03.059Z,3.30
2023-04-25T07:19:33.145Z,3.30
2023-04-25T07:22:03.224Z,3.30
2023-04-25T07:24:32.481Z,3.40
2023-04-25T07:27:00.412Z,3.50
2023-04-25T07:29:38.548Z,3.50
2023-04-25T07:32:06.211Z,3.40
2023-04-25T07:34:33.859Z,3.70
2023-04-25T07:37:01.397Z,3.70
2023-04-25T07:39:36.178Z,3.80
2023-04-25T07:42:04.972Z,3.70
2023-04-25T07:44:32.865Z,3.90
2023-04-25T07:47:02.486Z,3.80
2023-04-25T07:49:31.982Z,4.00
2023-04-25T07:51:59.519Z,4.10
2023-04-25T07:54:28.103Z,4.20
2023-04-25T07:57:01.509Z,4.00
2023-04-25T07:59:31.118Z,4.20
2023-04-25T08:02:02.040Z,4.20
2023-04-25T08:04:30.031Z,4.30
2023-04-25T08:07:03.153Z,4.20
2023-04-25T08:09:37.828Z,4.20
2023-04-25T08:12:09.114Z,4.20
2023-04-25T08:14:38.389Z,4.30
2023-04-25T08:17:06.819Z,4.30
2023-04-25T08:19:40.405Z,4.40
2023-04-25T08:22:11.076Z,4.40
2023-04-25T08:24:49.184Z,4.40
2023-04-25T08:27:20.182Z,4.50
2023-04-25T08:29:47.975Z,4.50
2023-04-25T08:32:15.802Z,4.50
2023-04-25T08:34:55.254Z,4.50
2023-04-25T08:37:23.257Z,4.50
2023-04-25T08:40:01.731Z,4.50
2023-04-25T08:42:45.667Z,4.70
2023-04-25T08:45:14.862Z,4.80
2023-04-25T08:47:45.939Z,4.90
2023-04-25T08:50:13.469Z,5.00
2023-04-25T08:52:46.566Z,5.10
2023-04-25T08:55:15.455Z,5.00
2023-04-25T08:57:43.937Z,5.10
2023-04-25T09:00:13.610Z,5.10
2023-04-25T09:02:45.108Z,5.30
2023-04-25T09:05:15.133Z,5.30
2023-04-25T09:07:43.387Z,5.40
2023-04-25T09:10:11.785Z,5.40
2023-04-25T09:12:40.232Z,5.50
2023-04-25T09:15:20.444Z,5.60
2023-04-25T09:18:07.241Z,5.70
2023-04-25T09:21:00.835Z,5.60
2023-04-25T09:23:45.379Z,5.40
2023-04-25T09:26:18.083Z,4.70
2023-04-25T09:28:47.201Z,4.80
2023-04-25T09:31:26.254Z,4.80
2023-04-25T09:34:02.333Z,4.80
2023-04-25T09:36:35.990Z,4.80
2023-04-25T09:39:33.875Z,5.10
2023-04-25T09:42:10.743Z,4.90
2023-04-25T09:44:38.909Z,5.20
2023-04-25T09:47:12.240Z,5.40
2023-04-25T09:49:44.467Z,5.60
2023-04-25T09:52:22.357Z,6.00
2023-04-25T09:55:17.400Z,6.50
2023-04-25T09:57:51.218Z,7.10
2023-04-25T10:00:20.657Z,7.50
2023-04-25T10:02:49.800Z,7.80
2023-04-25T10:05:37.621Z,7.50
2023-04-25T10:08:06.234Z,7.20
2023-04-25T10:10:37.190Z,6.90
2023-04-25T10:13:06.645Z,6.70
2023-04-25T10:15:39.659Z,6.40
2023-04-25T10:18:08.477Z,6.30
2023-04-25T10:20:36.200Z,6.30
2023-04-25T10:23:15.907Z,6.60
2023-04-25T10:25:44.274Z,7.50
2023-04-25T10:28:11.948Z,7.90
2023-04-25T10:31:04.682Z,8.50
2023-04-25T10:33:40.745Z,8.80
2023-04-25T10:36:24.341Z,8.10
2023-04-25T10:38:53.635Z,8.70
2023-04-25T10:41:22.362Z,9.20
2023-04-25T10:43:52.062Z,9.60
2023-04-25T10:46:36.020Z,9.90
2023-04-25T10:49:04.554Z,9.70
2023-04-25T10:51:54.489Z,9.30
2023-04-25T10:54:24.161Z,8.10
2023-04-25T10:56:52.295Z,7.20
2023-04-25T10:59:21.483Z,6.80
2023-04-25T11:01:52.886Z,6.70
2023-04-25T11:04:29.666Z,7.20
2023-04-25T11:07:11.825Z,7.30
2023-04-25T11:09:42.547Z,7.40
2023-04-25T11:12:12.846Z,7.30
2023-04-25T11:17:13.377Z,6.60
2023-04-25T11:19:40.891Z,6.20
2023-04-25T11:22:08.905Z,6.00
2023-04-25T11:24:37.717Z,5.80
2023-04-25T11:27:06.989Z,6.00
2023-04-25T11:29:36.079Z,6.00
2023-04-25T11:32:04.420Z,6.30
2023-04-25T11:34:35.814Z,6.40
2023-04-25T11:37:04.040Z,6.60
2023-04-25T11:39:34.546Z,6.50
2023-04-25T11:42:03.003Z,6.70
2023-04-25T11:44:32.383Z,7.10
2023-04-25T11:46:59.973Z,7.20
2023-04-25T11:49:32.985Z,7.50
2023-04-25T11:52:00.712Z,7.60
2023-04-25T11:54:28.208Z,7.60
2023-04-25T11:56:55.964Z,7.90
2023-04-25T11:59:27.572Z,8.30
2023-04-25T12:01:55.313Z,8.40
2023-04-25T12:04:24.657Z,8.40
2023-04-25T12:06:54.264Z,8.40
2023-04-25T12:09:29.641Z,8.70
2023-04-25T12:11:59.338Z,8.80
2023-04-25T12:14:29.974Z,8.90
2023-04-25T12:16:59.193Z,9.30
2023-04-25T12:19:27.827Z,9.00
2023-04-25T12:21:59.154Z,8.80
2023-04-25T12:24:28.756Z,8.80
2023-04-25T12:27:01.093Z,8.50
2023-04-25T12:29:34.984Z,8.60
2023-04-25T12:32:07.011Z,8.80
2023-04-25T12:34:36.934Z,8.60
2023-04-25T12:37:04.631Z,7.80
2023-04-25T12:39:32.164Z,7.00
2023-04-25T12:42:00.782Z,6.80
2023-04-25T12:44:28.421Z,6.60
2023-04-25T12:46:56.323Z,6.50
2023-04-25T12:49:24.420Z,6.20
2023-04-25T12:51:52.766Z,6.30
2023-04-25T12:54:20.215Z,6.30
2023-04-25T12:56:48.373Z,6.60
2023-04-25T12:59:16.493Z,6.60
2023-04-25T13:01:45.470Z,6.70
2023-04-25T13:04:13.264Z,6.90
2023-04-25T13:06:40.895Z,7.20
2023-04-25T13:09:08.347Z,7.30
2023-04-25T13:11:36.505Z,7.80
2023-04-25T13:14:04.105Z,7.90
2023-04-25T13:16:34.743Z,8.10
2023-04-25T13:19:02.351Z,7.90
2023-04-25T13:21:33.130Z,7.70
2023-04-25T13:24:00.824Z,7.80
2023-04-25T13:26:28.407Z,7.70
2023-04-25T13:28:55.963Z,7.60
2023-04-25T13:31:23.373Z,7.60
2023-04-25T13:33:51.092Z,7.80
2023-04-25T13:36:18.759Z,8.00
2023-04-25T13:38:48.310Z,8.00
2023-04-25T13:41:19.820Z,7.80
2023-04-25T13:43:49.252Z,7.70
2023-04-25T13:46:35.479Z,8.00
2023-04-25T13:49:12.217Z,8.30
2023-04-25T13:51:41.643Z,8.20
2023-04-25T13:54:09.122Z,8.10
2023-04-25T13:56:36.925Z,8.00
2023-04-25T13:59:04.588Z,8.10
2023-04-25T14:01:35.379Z,8.10
2023-04-25T14:04:05.048Z,8.00
2023-04-25T14:06:33.214Z,8.10
2023-04-25T14:09:05.431Z,8.10
2023-04-25T14:11:33.110Z,7.90
2023-04-25T14:14:00.556Z,7.80
2023-04-25T14:16:28.601Z,7.90
2023-04-25T14:18:56.448Z,7.90
2023-04-25T14:21:23.990Z,7.90
2023-04-25T14:23:51.646Z,7.80
2023-04-25T14:26:19.800Z,7.40
2023-04-25T14:28:47.290Z,7.30
2023-04-25T14:31:14.933Z,7.30
2023-04-25T14:33:43.797Z,7.50
2023-04-25T14:36:11.596Z,7.60
2023-04-25T14:38:39.035Z,7.60
2023-04-25T14:41:06.909Z,7.50
2023-04-25T14:43:34.371Z,7.30
2023-04-25T14:46:02.677Z,7.30
2023-04-25T14:48:30.850Z,7.40
2023-04-25T14:50:58.549Z,7.50
2023-04-25T14:53:26.585Z,7.60
2023-04-25T14:55:54.790Z,7.70
2023-04-25T14:58:22.454Z,7.70
2023-04-25T15:00:50.361Z,7.80
2023-04-25T15:03:18.769Z,7.40
2023-04-25T15:05:46.426Z,7.10
2023-04-25T15:08:13.856Z,7.20
2023-04-25T15:10:41.415Z,7.30
2023-04-25T15:13:08.967Z,7.20
2023-04-25T15:15:36.615Z,7.40
2023-04-25T15:18:04.333Z,7.40
2023-04-25T15:20:32.427Z,7.40
2023-04-25T15:23:00.060Z,7.60
2023-04-25T15:25:29.596Z,7.40
2023-04-25T15:27:57.123Z,7.60
2023-04-25T15:30:25.018Z,7.80
2023-04-25T15:32:52.528Z,7.80
2023-04-25T15:35:20.034Z,7.90
2023-04-25T15:37:47.583Z,7.80
2023-04-25T15:40:16.597Z,7.80
2023-04-25T15:42:51.722Z,7.60
2023-04-25T15:45:26.191Z,7.50
2023-04-25T15:47:57.388Z,7.40
2023-04-25T15:50:25.742Z,7.20
2023-04-25T15:52:53.345Z,7.30
2023-04-25T15:55:22.086Z,7.40
2023-04-25T15:57:51.387Z,7.60
2023-04-25T16:00:21.207Z,7.70
2023-04-25T16:02:48.892Z,7.60
2023-04-25T16:05:17.467Z,7.40
2023-04-25T16:07:45.949Z,7.30
2023-04-25T16:10:14.266Z,7.30
2023-04-25T16:12:42.146Z,7.50
2023-04-25T16:15:09.949Z,7.60
2023-04-25T16:17:37.375Z,7.60
2023-04-25T16:20:10.064Z,7.60
2023-04-25T16:22:40.251Z,7.70
2023-04-25T16:25:08.854Z,7.60
2023-04-25T16:27:38.906Z,7.60
2023-04-25T16:30:08.835Z,7.50
2023-04-25T16:32:37.959Z,7.50
2023-04-25T16:35:06.131Z,7.60
2023-04-25T16:37:33.821Z,7.70
2023-04-25T16:40:01.682Z,7.70
2023-04-25T16:42:29.242Z,7.60
2023-04-25T16:44:57.196Z,7.60
2023-04-25T16:47:27.935Z,7.50
2023-04-25T16:49:55.456Z,7.60
2023-04-25T16:52:23.905Z,7.60
2023-04-25T16:54:51.542Z,7.70
2023-04-25T16:57:19.001Z,7.60
2023-04-25T16:59:46.730Z,7.50
2023-04-25T17:02:15.058Z,7.50
2023-04-25T17:04:42.721Z,7.30
2023-04-25T17:07:10.924Z,7.40
2023-04-25T17:09:39.026Z,7.40
2023-04-25T17:12:07.063Z,7.30
2023-04-25T17:14:36.068Z,7.30
2023-04-25T17:17:03.857Z,7.20
2023-04-25T17:19:34.295Z,7.30
2023-04-25T17:22:01.907Z,7.30
2023-04-25T17:24:29.361Z,7.40
2023-04-25T17:26:57.369Z,7.40
2023-04-25T17:29:24.926Z,7.40
2023-04-25T17:31:53.584Z,7.40
2023-04-25T17:34:21.719Z,7.50
2023-04-25T17:36:49.354Z,7.50
2023-04-25T17:39:20.101Z,7.50
2023-04-25T17:41:47.612Z,7.40
2023-04-25T17:44:15.020Z,7.40
2023-04-25T17:46:42.587Z,7.40
2023-04-25T17:49:10.061Z,7.20
2023-04-25T17:51:37.966Z,7.10
2023-04-25T17:54:05.621Z,7.20
2023-04-25T17:56:37.860Z,7.20
2023-04-25T17:59:05.484Z,7.20
2023-04-25T18:01:33.148Z,7.20
2023-04-25T18:04:00.867Z,7.20
2023-04-25T18:06:28.422Z,7.30
2023-04-25T18:08:57.331Z,7.30
2023-04-25T18:11:25.647Z,7.20
2023-04-25T18:13:53.261Z,7.20
2023-04-25T18:16:20.941Z,7.10
2023-04-25T18:18:53.481Z,6.90
2023-04-25T18:21:21.884Z,6.80
2023-04-25T18:23:49.413Z,6.70
2023-04-25T18:26:16.771Z,6.60
2023-04-25T18:28:44.293Z,6.60
2023-04-25T18:31:11.897Z,6.50
2023-04-25T18:33:39.551Z,6.30
2023-04-25T18:36:07.427Z,6.30
2023-04-25T18:38:36.177Z,6.40
2023-04-25T18:41:24.107Z,6.40
2023-04-25T18:43:52.269Z,6.40
2023-04-25T18:46:22.620Z,6.30
2023-04-25T18:48:52.717Z,6.20
2023-04-25T18:51:23.258Z,6.10
2023-04-25T18:53:51.054Z,6.10
2023-04-25T18:56:20.993Z,6.10
2023-04-25T18:58:51.084Z,6.10
2023-04-25T19:01:22.115Z,6.00
2023-04-25T19:03:56.982Z,6.00
2023-04-25T19:06:28.041Z,6.00
2023-04-25T19:08:57.499Z,6.00
2023-04-25T19:11:25.378Z,5.90
2023-04-25T19:13:55.614Z,5.90
2023-04-25T19:16:23.877Z,5.80
2023-04-25T19:18:54.062Z,5.90
2023-04-25T19:21:22.702Z,5.90
2023-04-25T19:23:50.420Z,5.80
2023-04-25T19:26:18.951Z,5.90
2023-04-25T19:28:46.453Z,5.90
2023-04-25T19:31:14.066Z,5.70
2023-04-25T19:33:42.299Z,5.60
2023-04-25T19:36:09.898Z,5.70
2023-04-25T19:38:37.347Z,5.70
2023-04-25T19:41:04.893Z,5.60
2023-04-25T19:43:32.426Z,5.60
2023-04-25T19:45:59.986Z,5.60
2023-04-25T19:48:27.905Z,5.60
2023-04-25T19:50:55.616Z,5.60
2023-04-25T19:53:23.153Z,5.50
2023-04-25T19:55:51.030Z,5.60
2023-04-25T19:58:18.499Z,5.60
2023-04-25T20:00:46.180Z,5.50
2023-04-25T20:03:13.721Z,5.50
2023-04-25T20:05:41.244Z,5.50
2023-04-25T20:08:09.157Z,5.40
2023-04-25T20:10:37.370Z,5.30
2023-04-25T20:13:05.536Z,5.30
2023-04-25T20:15:33.234Z,5.30
2023-04-25T20:18:00.990Z,5.30
2023-04-25T20:20:28.572Z,5.30
2023-04-25T20:22:56.479Z,5.30
2023-04-25T20:25:24.180Z,5.30
2023-04-25T20:27:52.115Z,5.30
2023-04-25T20:30:19.752Z,5.10
2023-04-25T20:32:47.270Z,5.00
2023-04-25T20:35:17.567Z,5.00
2023-04-25T20:37:45.349Z,5.10
2023-04-25T20:40:13.473Z,5.10
2023-04-25T20:42:41.026Z,5.10
2023-04-25T20:45:13.399Z,5.10
2023-04-25T20:47:41.487Z,5.20
2023-04-25T20:50:09.428Z,5.10
2023-04-25T20:52:38.677Z,5.10
2023-04-25T20:55:07.521Z,5.10
2023-04-25T20:57:34.999Z,5.00
2023-04-25T21:00:05.411Z,4.80
2023-04-25T21:02:33.053Z,4.80
2023-04-25T21:05:00.529Z,4.70
2023-04-25T21:07:28.737Z,4.60
2023-04-25T21:09:56.299Z,4.50
2023-04-25T21:12:23.821Z,4.40
2023-04-25T21:14:51.386Z,4.30
2023-04-25T21:17:18.884Z,4.30
2023-04-25T21:19:46.388Z,4.40
2023-04-25T21:22:13.987Z,4.50
2023-04-25T21:24:41.510Z,4.50
2023-04-25T21:27:09.006Z,4.40
2023-04-25T21:29:36.504Z,4.40
2023-04-25T21:32:04.421Z,4.50
2023-04-25T21:34:32.058Z,4.40
2023-04-25T21:36:59.506Z,4.40
2023-04-25T21:39:27.275Z,4.40
2023-04-25T21:41:55.690Z,4.40
2023-04-25T21:44:23.214Z,4.50
2023-04-25T21:46:51.098Z,4.60
2023-04-25T21:49:18.672Z,4.40
2023-04-25T21:51:46.099Z,4.30
2023-04-25T21:54:13.612Z,4.30
2023-04-25T21:56:41.085Z,4.30
2023-04-25T21:59:08.570Z,4.40
2023-04-25T22:01:36.707Z,4.30
2023-04-25T22:04:04.541Z,4.40
2023-04-25T22:06:32.274Z,4.30
2023-04-25T22:08:59.715Z,4.30
2023-04-25T22:11:28.546Z,4.20
2023-04-25T22:13:56.108Z,4.30
2023-04-25T22:16:23.596Z,4.40
2023-04-25T22:18:52.296Z,4.30
2023-04-25T22:21:19.924Z,4.30
2023-04-25T22:23:47.377Z,4.40
2023-04-25T22:26:14.890Z,4.30
2023-04-25T22:28:42.439Z,4.40
2023-04-25T22:31:10.671Z,4.30
2023-04-25T22:33:38.223Z,4.30
2023-04-25T22:36:05.874Z,4.30
2023-04-25T22:38:33.362Z,4.30
2023-04-25T22:41:00.915Z,4.30
2023-04-25T22:43:29.455Z,4.30
2023-04-25T22:45:58.906Z,4.30
2023-04-25T22:48:26.483Z,4.30
2023-04-25T22:51:05.266Z,4.20
2023-04-25T22:53:34.313Z,4.20
2023-04-25T22:56:02.091Z,4.00
2023-04-25T22:58:30.031Z,4.00
2023-04-25T23:00:57.652Z,3.80
2023-04-25T23:03:25.497Z,3.90
2023-04-25T23:05:53.079Z,3.80
2023-04-25T23:08:20.909Z,3.90
2023-04-25T23:10:48.562Z,4.00
2023-04-25T23:13:16.749Z,4.00
2023-04-25T23:15:44.206Z,3.80
2023-04-25T23:18:11.911Z,3.70
2023-04-25T23:20:39.942Z,3.70
2023-04-25T23:23:07.707Z,3.70
2023-04-25T23:25:39.927Z,3.70
2023-04-25T23:28:07.771Z,3.80
2023-04-25T23:30:35.187Z,3.80
2023-04-25T23:33:04.070Z,3.70
2023-04-25T23:35:35.042Z,3.70
2023-04-25T23:38:03.075Z,3.60
2023-04-25T23:40:31.792Z,3.70
2023-04-25T23:43:01.430Z,3.70
2023-04-25T23:45:29.281Z,3.60
2023-04-25T23:47:56.841Z,3.60
2023-04-25T23:50:24.448Z,3.60
2023-04-25T23:52:52.002Z,3.60
2023-04-25T23:55:19.520Z,3.60
2023-04-25T23:57:47.720Z,3.50
